Time;durP1;ratioP1;P1;durP2;ratioP2;P2;SDS_P1;SDS_P2;PMS_P1;PMS_P2;Temp;Humidity;BMP_temperature;BMP_pressure;BME280_temperature;BME280_humidity;BME280_pressure;Samples;Min_cycle;Max_cycle;Signal;HPM_P1;HPM_P2
2022/03/13 00:00:02;;;;;;;1.15;0.60;;;;;;;11.42;84.11;100303.72;5050347;28;20041;-72
2022/03/13 00:02:31;;;;;;;1.42;0.63;;;;;;;11.38;82.03;100301.03;5052644;28;20344;-72
2022/03/13 00:04:59;;;;;;;4.93;1.23;;;;;;;11.31;84.13;100292.28;5050424;28;20649;-73
2022/03/13 00:07:30;;;;;;;1.77;1.08;;;;;;;11.29;85.17;100287.09;5050013;28;20049;-72
2022/03/13 00:09:58;;;;;;;2.78;0.70;;;;;;;11.27;86.42;100280.13;5049761;28;20126;-72
2022/03/13 00:12:29;;;;;;;2.90;0.60;;;;;;;11.21;90.09;100282.59;5049801;28;20037;-72
2022/03/13 00:14:59;;;;;;;5.28;1.08;;;;;;;11.17;91.84;100280.78;5050421;28;20063;-72
2022/03/13 00:17:29;;;;;;;3.05;1.33;;;;;;;11.07;92.85;100266.81;5049825;28;20049;-72
2022/03/13 00:20:00;;;;;;;1.80;0.90;;;;;;;11.06;100.00;100270.22;5049805;28;20063;-72
2022/03/13 00:22:31;;;;;;;2.13;0.82;;;;;;;11.03;100.00;100260.69;5049034;28;20102;-71
2022/03/13 00:25:02;;;;;;;2.15;1.10;;;;;;;11.03;100.00;100257.22;5049505;28;20537;-71
2022/03/13 00:27:34;;;;;;;2.22;1.08;;;;;;;11.00;100.00;100255.44;5050207;28;20049;-74
2022/03/13 00:30:04;;;;;;;2.30;1.15;;;;;;;10.95;100.00;100257.09;5049376;28;20060;-72
2022/03/13 00:32:33;;;;;;;3.53;1.25;;;;;;;10.96;100.00;100250.19;5049342;28;20059;-71
2022/03/13 00:35:03;;;;;;;1.40;1.00;;;;;;;10.95;100.00;100218.25;5049445;28;20052;-73
2022/03/13 00:37:33;;;;;;;5.07;1.05;;;;;;;10.97;100.00;100223.44;5048802;28;20148;-73
2022/03/13 00:40:02;;;;;;;1.92;1.13;;;;;;;10.99;100.00;100240.75;5049474;28;20479;-73
2022/03/13 00:42:30;;;;;;;2.25;0.80;;;;;;;11.01;100.00;100228.72;5049212;28;20053;-72
2022/03/13 00:44:59;;;;;;;1.88;1.02;;;;;;;10.97;100.00;100221.75;5048767;28;20045;-71
2022/03/13 00:47:27;;;;;;;2.80;0.90;;;;;;;10.97;100.00;100215.69;5049411;28;20049;-72
2022/03/13 00:49:56;;;;;;;4.82;1.33;;;;;;;10.93;100.00;100217.34;5035179;28;20080;-72
2022/03/13 00:52:24;;;;;;;3.05;1.42;;;;;;;10.94;100.00;100206.13;5048838;28;20057;-72
2022/03/13 00:54:54;;;;;;;1.98;1.10;;;;;;;10.92;100.00;100206.97;5049456;28;20552;-73
2022/03/13 00:57:23;;;;;;;3.33;1.40;;;;;;;10.92;100.00;100202.66;5049716;28;20544;-72
2022/03/13 00:59:51;;;;;;;4.80;1.08;;;;;;;10.92;100.00;100196.59;5051657;28;20075;-73
2022/03/13 01:02:20;;;;;;;2.22;0.70;;;;;;;10.90;100.00;100194.88;5049535;28;20057;-72
2022/03/13 01:04:48;;;;;;;2.00;1.00;;;;;;;10.91;100.00;100200.91;5049328;28;20110;-74
2022/03/13 01:07:17;;;;;;;5.07;1.50;;;;;;;10.91;100.00;100195.75;5049504;28;20041;-74
2022/03/13 01:09:45;;;;;;;1.70;1.00;;;;;;;10.93;100.00;100204.41;5048894;28;20321;-74
2022/03/13 01:12:16;;;;;;;1.63;1.17;;;;;;;10.95;100.00;100187.19;5048396;28;20099;-74
2022/03/13 01:14:44;;;;;;;2.55;1.10;;;;;;;10.99;100.00;100188.97;5050046;28;20053;-73
2022/03/13 01:17:13;;;;;;;3.13;1.08;;;;;;;11.05;100.00;100181.34;5048570;28;20133;-74
2022/03/13 01:19:41;;;;;;;4.70;1.25;;;;;;;11.08;100.00;100188.28;5048588;28;20478;-74
2022/03/13 01:22:11;;;;;;;4.75;2.25;;;;;;;11.06;100.00;100190.84;5048486;28;20152;-74
2022/03/13 01:24:43;;;;;;;2.28;1.20;;;;;;;11.01;100.00;100176.06;5048608;28;20052;-74
2022/03/13 01:27:13;;;;;;;8.83;1.90;;;;;;;10.98;100.00;100182.06;5049316;28;20128;-73
2022/03/13 01:29:44;;;;;;;4.32;1.55;;;;;;;10.96;100.00;100182.88;5048452;28;20290;-75
2022/03/13 01:32:14;;;;;;;2.25;1.50;;;;;;;11.00;100.00;100176.94;5048877;28;20049;-75
2022/03/13 01:34:48;;;;;;;6.25;2.17;;;;;;;10.97;100.00;100167.41;5049129;28;20045;-77
2022/03/13 01:37:33;;;;;;;4.57;2.40;;;;;;;10.90;100.00;100158.63;5028898;28;20064;-75
2022/03/13 01:40:03;;;;;;;2.00;1.20;;;;;;;10.86;100.00;100161.13;5041425;28;20106;-76
2022/03/13 01:42:31;;;;;;;3.38;1.00;;;;;;;10.77;100.00;100158.38;5048857;28;20057;-77
2022/03/13 01:45:02;;;;;;;3.50;0.88;;;;;;;10.73;100.00;100147.09;5048342;28;20048;-74
2022/03/13 01:47:30;;;;;;;2.28;1.27;;;;;;;10.76;100.00;100154.03;5049052;28;20052;-74
2022/03/13 01:49:59;;;;;;;1.80;0.90;;;;;;;10.76;100.00;100154.03;5048076;28;20634;-73
2022/03/13 01:52:30;;;;;;;1.48;0.90;;;;;;;10.74;100.00;100147.94;5047351;28;20080;-75
2022/03/13 01:54:59;;;;;;;1.48;0.88;;;;;;;10.66;100.00;100153.84;5048086;28;20041;-73
2022/03/13 01:57:28;;;;;;;2.35;0.90;;;;;;;10.64;100.00;100145.19;5048985;28;20055;-71
2022/03/13 01:59:59;;;;;;;3.30;1.00;;;;;;;10.65;100.00;100140.88;5048842;28;20494;-70
2022/03/13 02:02:34;;;;;;;1.70;0.80;;;;;;;10.62;100.00;100141.69;5036142;28;20049;-71
2022/03/13 02:05:03;;;;;;;2.70;0.95;;;;;;;10.57;100.00;100139.88;5048742;28;20048;-71
2022/03/13 02:07:32;;;;;;;3.80;1.15;;;;;;;10.54;100.00;100126.88;5048549;28;20406;-71
2022/03/13 02:10:00;;;;;;;1.33;0.85;;;;;;;10.57;100.00;100127.81;5048302;28;20049;-71
2022/03/13 02:12:29;;;;;;;2.97;1.48;;;;;;;10.52;100.00;100115.63;5048170;28;20049;-71
2022/03/13 02:15:05;;;;;;;2.38;1.30;;;;;;;10.53;100.00;100110.47;5049910;28;20057;-71
2022/03/13 02:17:37;;;;;;;1.83;0.95;;;;;;;10.51;100.00;100116.47;5048929;28;20053;-71
2022/03/13 02:20:06;;;;;;;0.95;0.70;;;;;;;10.48;100.00;100112.97;5048358;28;20049;-71
2022/03/13 02:22:34;;;;;;;2.35;0.82;;;;;;;10.46;100.00;100108.63;5048388;28;20106;-71
2022/03/13 02:25:05;;;;;;;1.02;0.80;;;;;;;10.44;100.00;100105.13;5048030;28;20351;-72
2022/03/13 02:27:34;;;;;;;0.85;0.50;;;;;;;10.46;100.00;100108.63;5048812;28;20102;-72
2022/03/13 02:30:03;;;;;;;1.23;0.50;;;;;;;10.42;100.00;100099.94;5051302;28;20056;-72
2022/03/13 02:32:32;;;;;;;2.40;0.60;;;;;;;10.41;100.00;100100.78;5051993;28;20053;-72
2022/03/13 02:35:00;;;;;;;1.00;0.70;;;;;;;10.37;100.00;100093.78;5051968;28;20118;-73
2022/03/13 02:37:40;;;;;;;1.25;0.70;;;;;;;10.33;100.00;100091.09;5051887;28;20048;-72
2022/03/13 02:40:17;;;;;;;2.88;0.55;;;;;;;10.33;100.00;100089.41;5051701;28;20045;-72
2022/03/13 02:42:46;;;;;;;0.60;0.40;;;;;;;10.35;100.00;100073.91;5038364;28;20049;-73
2022/03/13 02:45:29;;;;;;;0.82;0.43;;;;;;;10.33;100.00;100068.72;5051221;28;20049;-73
2022/03/13 02:47:58;;;;;;;1.17;0.82;;;;;;;10.29;100.00;100066.06;5052206;28;20048;-72
2022/03/13 02:50:26;;;;;;;1.08;0.60;;;;;;;10.27;100.00;100072.03;5051451;28;20119;-72
2022/03/13 02:52:55;;;;;;;1.15;0.55;;;;;;;10.29;100.00;100068.63;5051563;28;20048;-72
2022/03/13 02:55:25;;;;;;;1.60;0.70;;;;;;;10.27;100.00;100072.03;5052736;28;20136;-72
2022/03/13 02:57:55;;;;;;;0.70;0.50;;;;;;;10.23;100.00;100053.81;5053008;28;20068;-74
2022/03/13 03:00:40;;;;;;;1.83;0.60;;;;;;;10.27;100.00;100053.06;5052822;28;20053;-73
2022/03/13 03:03:08;;;;;;;1.10;0.63;;;;;;;10.27;100.00;100046.16;5051395;28;20048;-72
2022/03/13 03:05:37;;;;;;;3.05;0.95;;;;;;;10.23;100.00;100049.53;5051798;28;20190;-73
2022/03/13 03:08:07;;;;;;;1.35;0.77;;;;;;;10.26;100.00;100048.72;5051323;28;20052;-74
2022/03/13 03:10:38;;;;;;;1.88;0.88;;;;;;;10.24;100.00;100035.78;5039649;28;20059;-74
2022/03/13 03:13:08;;;;;;;3.13;0.80;;;;;;;10.27;100.00;100046.16;5051201;28;20049;-73
2022/03/13 03:15:36;;;;;;;1.85;0.80;;;;;;;10.23;100.00;100046.94;5051720;28;20072;-73
2022/03/13 03:18:07;;;;;;;1.52;0.77;;;;;;;10.26;100.00;100040.94;5051058;28;20076;-73
2022/03/13 03:20:35;;;;;;;1.95;0.77;;;;;;;10.25;100.00;100042.66;5051422;28;20053;-73
2022/03/13 03:23:05;;;;;;;1.38;0.77;;;;;;;10.27;100.00;100028.06;5050122;28;20061;-73
2022/03/13 03:25:33;;;;;;;0.90;0.50;;;;;;;10.25;100.00;100029.75;5050544;28;20057;-73
2022/03/13 03:28:04;;;;;;;1.20;0.63;;;;;;;10.18;100.00;100033.06;5050630;28;20045;-72
2022/03/13 03:30:33;;;;;;;0.98;0.60;;;;;;;10.25;100.00;100027.16;5037769;28;20114;-72
2022/03/13 03:33:04;;;;;;;1.00;0.57;;;;;;;10.29;100.00;100027.28;5050343;28;20103;-71
2022/03/13 03:35:34;;;;;;;2.35;0.80;;;;;;;10.25;100.00;100027.16;5044664;28;20049;-72
2022/03/13 03:38:03;;;;;;;0.95;0.45;;;;;;;10.26;100.00;100034.09;5042815;28;20066;-72
2022/03/13 03:40:34;;;;;;;1.95;0.55;;;;;;;10.24;100.00;100043.53;5049986;28;20048;-76
2022/03/13 03:43:06;;;;;;;0.90;0.45;;;;;;;10.20;100.00;100030.50;5049958;28;20228;-72
2022/03/13 03:45:35;;;;;;;1.55;0.40;;;;;;;10.20;100.00;100033.97;5050483;28;20194;-75
2022/03/13 03:48:04;;;;;;;0.80;0.40;;;;;;;10.16;100.00;100031.28;5050773;28;20118;-74
2022/03/13 03:50:32;;;;;;;0.88;0.50;;;;;;;10.16;100.00;100034.75;5050283;28;20045;-74
2022/03/13 03:53:01;;;;;;;0.73;0.50;;;;;;;10.07;100.00;100011.28;5051279;28;20056;-74
2022/03/13 03:55:29;;;;;;;1.00;0.55;;;;;;;10.11;100.00;99976.06;5051079;28;20051;-75
2022/03/13 03:57:58;;;;;;;1.17;0.73;;;;;;;10.12;100.00;99988.97;5050274;28;20130;-76
2022/03/13 04:00:29;;;;;;;0.55;0.52;;;;;;;10.09;100.00;99999.28;5050073;28;20474;-76
2022/03/13 04:02:58;;;;;;;2.95;0.50;;;;;;;10.08;100.00;99989.78;5049369;28;20570;-75
2022/03/13 04:05:26;;;;;;;0.65;0.47;;;;;;;10.09;100.00;100009.63;5049445;28;20110;-76
2022/03/13 04:07:55;;;;;;;0.57;0.45;;;;;;;10.02;100.00;100007.75;5050580;28;20772;-75
2022/03/13 04:10:24;;;;;;;0.77;0.50;;;;;;;10.03;100.00;99993.97;5038037;28;20060;-78
2022/03/13 04:12:53;;;;;;;2.67;0.40;;;;;;;9.94;100.00;99994.69;5050056;28;20045;-77
2022/03/13 04:15:23;;;;;;;1.15;0.40;;;;;;;9.93;100.00;99984.31;5050533;28;20119;-74
2022/03/13 04:17:55;;;;;;;1.42;0.57;;;;;;;9.87;100.00;99961.78;5050586;28;20107;-74
2022/03/13 04:20:23;;;;;;;2.58;0.32;;;;;;;9.84;100.00;99954.84;5050101;28;20059;-74
2022/03/13 04:22:52;;;;;;;0.45;0.20;;;;;;;9.88;100.00;99936.84;5049517;28;20280;-76
2022/03/13 04:25:21;;;;;;;0.55;0.28;;;;;;;9.89;100.00;99952.38;5050358;28;20418;-75
2022/03/13 04:27:49;;;;;;;0.15;0.15;;;;;;;9.81;100.00;99965.16;5050354;28;20055;-75
2022/03/13 04:30:17;;;;;;;0.47;0.40;;;;;;;9.84;100.00;99977.25;5049355;28;20049;-74
2022/03/13 04:32:47;;;;;;;0.30;0.30;;;;;;;9.85;100.00;99974.72;5049820;28;20098;-74
2022/03/13 04:35:18;;;;;;;1.35;0.40;;;;;;;9.84;100.00;99975.53;5049251;28;20048;-73
2022/03/13 04:37:53;;;;;;;0.40;0.20;;;;;;;9.86;100.00;99979.00;5050396;28;20072;-74
2022/03/13 04:40:22;;;;;;;0.20;0.10;;;;;;;9.88;100.00;99994.56;5049476;28;20045;-74
2022/03/13 04:42:50;;;;;;;0.57;0.38;;;;;;;9.89;100.00;99995.44;5049620;28;20091;-74
2022/03/13 04:45:19;;;;;;;0.93;0.52;;;;;;;9.86;100.00;100004.84;5049018;28;20052;-73
2022/03/13 04:47:48;;;;;;;0.65;0.20;;;;;;;9.80;100.00;100021.94;5049626;28;20146;-74
2022/03/13 04:50:18;;;;;;;0.10;0.10;;;;;;;9.78;100.00;100026.19;5052107;28;20045;-73
2022/03/13 04:52:46;;;;;;;1.38;0.10;;;;;;;9.76;100.00;100039.09;5049466;28;20107;-74
2022/03/13 04:55:15;;;;;;;0.17;0.10;;;;;;;9.75;100.00;100039.94;5049658;28;20049;-73
2022/03/13 04:57:44;;;;;;;0.22;0.10;;;;;;;9.70;100.00;100033.81;5048866;28;20124;-74
2022/03/13 05:00:12;;;;;;;0.35;0.20;;;;;;;9.68;100.00;100035.47;5048707;28;20053;-74
2022/03/13 05:02:41;;;;;;;0.30;0.10;;;;;;;9.66;100.00;100050.06;5049112;28;20054;-73
2022/03/13 05:05:10;;;;;;;0.10;0.10;;;;;;;9.66;100.00;100044.91;5049208;28;20099;-74
2022/03/13 05:07:40;;;;;;;1.08;0.08;;;;;;;9.58;100.00;100046.47;5049124;28;20080;-74
2022/03/13 05:10:12;;;;;;;0.30;0.20;;;;;;;9.63;100.00;100053.47;5037156;28;20388;-80
2022/03/13 05:12:49;;;;;;;0.00;0.00;;;;;;;9.63;100.00;100055.19;5048564;28;20055;-75
2022/03/13 05:15:24;;;;;;;0.28;0.10;;;;;;;9.63;100.00;100056.03;5049032;28;20056;-76
2022/03/13 05:17:59;;;;;;;0.20;0.13;;;;;;;9.59;100.00;100035.28;5048695;28;20053;-75
2022/03/13 05:20:27;;;;;;;0.47;0.32;;;;;;;9.59;100.00;100017.19;5048638;28;20045;-75
2022/03/13 05:22:58;;;;;;;0.10;0.00;;;;;;;9.59;100.00;100028.41;5048646;28;20048;-74
2022/03/13 05:25:30;;;;;;;0.50;0.17;;;;;;;9.52;100.00;100035.97;5048566;28;20059;-76
2022/03/13 05:27:59;;;;;;;0.55;0.32;;;;;;;9.50;100.00;100028.19;5049352;28;20041;-75
2022/03/13 05:30:28;;;;;;;0.10;0.10;;;;;;;9.46;100.00;100030.69;5048659;28;20045;-76
2022/03/13 05:32:57;;;;;;;1.20;0.20;;;;;;;9.40;100.00;100065.84;5049166;28;20056;-76
2022/03/13 05:35:26;;;;;;;0.30;0.00;;;;;;;9.37;100.00;100077.84;5043328;28;20045;-75
2022/03/13 05:37:54;;;;;;;0.00;0.00;;;;;;;9.40;100.00;100096.84;5041013;28;20041;-74
2022/03/13 05:40:25;;;;;;;0.20;0.10;;;;;;;9.38;100.00;100088.19;5048291;28;20103;-75
2022/03/13 05:42:56;;;;;;;0.15;0.03;;;;;;;9.39;100.00;100082.19;5048307;28;20052;-76
2022/03/13 05:45:32;;;;;;;0.50;0.20;;;;;;;9.40;100.00;100116.63;5035697;28;20046;-76
2022/03/13 05:48:02;;;;;;;0.30;0.10;;;;;;;9.37;100.00;100135.50;5038312;28;20048;-75
2022/03/13 05:50:31;;;;;;;0.30;0.15;;;;;;;9.33;100.00;100105.28;5049016;28;20057;-74
2022/03/13 05:53:00;;;;;;;0.20;0.17;;;;;;;9.29;100.00;100131.84;5034041;28;20049;-75
2022/03/13 05:55:30;;;;;;;0.20;0.10;;;;;;;9.20;100.00;100166.03;5048240;28;20076;-75
2022/03/13 05:58:01;;;;;;;0.30;0.10;;;;;;;9.09;100.00;100190.69;5048819;28;20087;-77
2022/03/13 06:00:32;;;;;;;0.65;0.32;;;;;;;9.00;100.00;100205.94;5048676;28;20050;-75
2022/03/13 06:03:01;;;;;;;0.30;0.00;;;;;;;8.97;100.00;100224.81;5050026;28;20048;-76
2022/03/13 06:05:34;;;;;;;0.68;0.08;;;;;;;8.92;100.00;100215.19;5051923;28;20120;-75
2022/03/13 06:08:03;;;;;;;0.20;0.20;;;;;;;8.88;100.00;100210.78;5052699;28;20084;-76
2022/03/13 06:10:33;;;;;;;0.30;0.20;;;;;;;8.87;100.00;100209.06;5055993;28;20700;-77
2022/03/13 06:13:01;;;;;;;0.70;0.20;;;;;;;8.81;100.00;100204.56;5052013;28;20049;-78
2022/03/13 06:15:31;;;;;;;2.58;0.20;;;;;;;8.73;100.00;100198.34;5052961;28;20147;-75
2022/03/13 06:17:59;;;;;;;5.82;0.20;;;;;;;8.65;100.00;100202.41;5051966;28;20138;-76
2022/03/13 06:20:28;;;;;;;0.10;0.10;;;;;;;8.65;100.00;100200.69;5051637;28;20044;-77
2022/03/13 06:22:57;;;;;;;1.13;0.30;;;;;;;8.67;100.00;100203.31;5052331;28;20507;-76
2022/03/13 06:25:25;;;;;;;0.40;0.20;;;;;;;8.67;100.00;100203.31;5051795;28;20140;-74
2022/03/13 06:27:56;;;;;;;0.47;0.17;;;;;;;8.66;100.00;100210.19;5052645;28;20044;-75
2022/03/13 06:30:25;;;;;;;2.72;0.20;;;;;;;8.64;100.00;100216.16;5051796;28;20040;-75
2022/03/13 06:32:55;;;;;;;2.00;0.38;;;;;;;8.58;100.00;100227.13;5052021;28;20072;-74
2022/03/13 06:35:25;;;;;;;0.28;0.10;;;;;;;8.56;100.00;100214.19;5051683;28;20052;-78
2022/03/13 06:37:54;;;;;;;1.83;0.22;;;;;;;8.53;100.00;100234.75;5051475;28;20080;-77
2022/03/13 06:40:24;;;;;;;0.40;0.30;;;;;;;8.47;100.00;100229.41;5051487;28;20080;-77
2022/03/13 06:42:55;;;;;;;0.63;0.22;;;;;;;8.45;100.00;100238.78;5051795;28;20103;-74
2022/03/13 06:45:24;;;;;;;0.17;0.15;;;;;;;8.39;100.00;100251.47;5039639;28;20483;-74
2022/03/13 06:47:53;;;;;;;1.00;0.25;;;;;;;8.33;100.00;100262.47;5053774;28;20124;-75
2022/03/13 06:50:24;;;;;;;0.70;0.20;;;;;;;8.29;100.00;100255.50;5051091;28;20181;-76
2022/03/13 06:52:54;;;;;;;0.55;0.20;;;;;;;8.19;100.00;100274.94;5050759;28;20049;-76
2022/03/13 06:55:24;;;;;;;0.70;0.40;;;;;;;8.14;100.00;100273.03;5051256;28;20404;-74
2022/03/13 06:57:52;;;;;;;0.03;0.03;;;;;;;8.12;100.00;100282.44;5051148;28;20695;-75
2022/03/13 07:00:23;;;;;;;0.57;0.25;;;;;;;7.98;100.00;100287.13;5051651;28;20056;-74
2022/03/13 07:02:52;;;;;;;0.80;0.20;;;;;;;7.98;100.00;100300.88;5051303;28;20049;-77
2022/03/13 07:05:22;;;;;;;0.35;0.20;;;;;;;7.83;100.00;100296.94;5051798;28;20053;-79
2022/03/13 07:07:52;;;;;;;0.35;0.30;;;;;;;7.85;100.00;100297.88;5051754;28;20460;-76
2022/03/13 07:10:21;;;;;;;0.38;0.13;;;;;;;7.83;100.00;100297.81;5051012;28;20120;-78
2022/03/13 07:12:49;;;;;;;0.30;0.20;;;;;;;7.71;100.00;100289.69;5051224;28;20044;-78
2022/03/13 07:15:18;;;;;;;0.70;0.47;;;;;;;7.62;100.00;100300.53;5050974;28;20057;-77
2022/03/13 07:17:49;;;;;;;3.53;0.52;;;;;;;7.56;100.00;100287.47;5051531;28;20041;-79
2022/03/13 07:20:17;;;;;;;0.95;0.40;;;;;;;7.53;100.00;100305.38;5051682;28;20048;-79
2022/03/13 07:22:47;;;;;;;1.75;0.30;;;;;;;7.53;100.00;100292.50;5051505;28;20522;-79
2022/03/13 07:25:16;;;;;;;2.33;0.47;;;;;;;7.54;100.00;100295.13;5050635;28;20175;-79
2022/03/13 07:27:45;;;;;;;1.08;0.30;;;;;;;7.55;100.00;100294.31;5050998;28;20114;-79
2022/03/13 07:30:15;;;;;;;2.05;0.30;;;;;;;7.52;100.00;100296.78;5050915;28;20049;-79
2022/03/13 07:32:45;;;;;;;0.77;0.30;;;;;;;7.50;100.00;100293.28;5050550;28;20052;-79
2022/03/13 07:35:15;;;;;;;2.45;0.25;;;;;;;7.45;100.00;100291.38;5047150;28;20132;-79
2022/03/13 07:37:43;;;;;;;1.55;0.70;;;;;;;7.42;100.00;100292.16;5041911;28;20071;-82
2022/03/13 07:40:13;;;;;;;1.15;0.60;;;;;;;7.44;100.00;100285.34;5051148;28;20044;-82
2022/03/13 07:42:42;;;;;;;0.35;0.20;;;;;;;7.38;100.00;100285.16;5051313;28;20048;-81
2022/03/13 07:45:11;;;;;;;1.75;0.63;;;;;;;7.38;100.00;100295.44;5053203;28;20045;-78
2022/03/13 07:47:39;;;;;;;3.10;0.50;;;;;;;7.31;100.00;100275.47;5051363;28;20045;-79
2022/03/13 07:50:09;;;;;;;6.43;1.10;;;;;;;7.27;100.00;100269.31;5050458;28;20114;-79
2022/03/13 07:52:39;;;;;;;1.55;0.50;;;;;;;7.22;100.00;100270.00;5050391;28;20143;-78
2022/03/13 07:55:09;;;;;;;2.78;0.40;;;;;;;7.19;100.00;100272.44;5050401;28;20053;-80
2022/03/13 07:57:38;;;;;;;2.33;0.73;;;;;;;7.08;100.00;100266.94;5050685;28;20095;-78
2022/03/13 08:00:07;;;;;;;5.45;0.93;;;;;;;7.18;100.00;100265.56;5050376;28;20056;-79
2022/03/13 08:02:36;;;;;;;1.48;0.30;;;;;;;7.19;100.00;100268.16;5050418;28;20048;-78
2022/03/13 08:05:04;;;;;;;4.95;0.77;;;;;;;7.18;100.00;100265.56;5050819;28;20131;-80
2022/03/13 08:07:34;;;;;;;4.32;0.82;;;;;;;7.12;100.00;100271.34;5050733;28;20056;-77
2022/03/13 08:10:04;;;;;;;1.45;0.50;;;;;;;7.16;100.00;100268.06;5050001;28;20037;-77
2022/03/13 08:12:33;;;;;;;2.67;0.40;;;;;;;7.21;100.00;100276.81;5049898;28;20589;-77
2022/03/13 08:15:01;;;;;;;3.22;1.02;;;;;;;7.22;100.00;100265.72;5050186;28;20056;-80
2022/03/13 08:17:30;;;;;;;2.80;0.70;;;;;;;7.21;100.00;100266.50;5049635;28;20486;-79
2022/03/13 08:19:59;;;;;;;5.15;0.95;;;;;;;7.23;100.00;100261.44;5050041;28;20403;-81
2022/03/13 08:22:28;;;;;;;0.73;0.60;;;;;;;7.30;100.00;100253.09;5049553;28;20072;-82
2022/03/13 08:24:56;;;;;;;4.78;0.98;;;;;;;7.30;100.00;100247.97;5050015;28;20495;-80
2022/03/13 08:27:27;;;;;;;3.60;0.43;;;;;;;7.28;100.00;100245.34;5048680;28;20507;-79
2022/03/13 08:29:55;;;;;;;6.53;0.70;;;;;;;7.32;100.00;100242.03;5049673;28;20134;-76
2022/03/13 08:32:24;;;;;;;1.23;0.40;;;;;;;7.31;100.00;100236.84;5049455;28;20064;-77
2022/03/13 08:34:53;;;;;;;1.27;0.40;;;;;;;7.28;100.00;100237.63;5049728;28;20091;-77
2022/03/13 08:37:21;;;;;;;5.65;0.73;;;;;;;7.28;100.00;100237.63;5049526;28;20052;-77
2022/03/13 08:39:50;;;;;;;1.75;0.40;;;;;;;7.26;100.00;100218.69;5049430;28;20080;-79
2022/03/13 08:42:18;;;;;;;1.00;0.77;;;;;;;7.28;100.00;100231.59;5049684;28;20130;-79
2022/03/13 08:44:48;;;;;;;4.53;0.65;;;;;;;7.25;100.00;100236.63;5043987;28;20056;-77
2022/03/13 08:47:17;;;;;;;1.33;0.40;;;;;;;7.23;100.00;100226.28;5044576;28;20096;-78
2022/03/13 08:49:45;;;;;;;2.97;0.50;;;;;;;7.25;100.00;100240.06;5035458;28;20240;-78
2022/03/13 08:52:14;;;;;;;2.28;0.47;;;;;;;7.25;100.00;100231.50;5049012;28;20041;-78
2022/03/13 08:54:42;;;;;;;2.97;0.80;;;;;;;7.27;100.00;100232.41;5049644;28;20056;-78
2022/03/13 08:57:11;;;;;;;3.42;0.50;;;;;;;7.25;100.00;100228.91;5049055;28;20085;-76
2022/03/13 08:59:39;;;;;;;0.95;0.32;;;;;;;7.25;100.00;100231.50;5049352;28;20076;-76
2022/03/13 09:02:11;;;;;;;3.63;0.60;;;;;;;7.20;100.00;100233.91;5049323;28;20103;-77
2022/03/13 09:04:41;;;;;;;2.40;0.50;;;;;;;7.17;100.00;100244.09;5049109;28;20135;-75
2022/03/13 09:07:09;;;;;;;2.40;0.77;;;;;;;7.17;100.00;100249.25;5048952;28;20067;-77
2022/03/13 09:09:38;;;;;;;0.95;0.32;;;;;;;7.20;100.00;100261.34;5048623;28;20045;-78
2022/03/13 09:12:08;;;;;;;5.03;1.00;;;;;;;7.18;100.00;100260.41;5049165;28;20517;-78
2022/03/13 09:14:38;;;;;;;1.45;0.40;;;;;;;7.21;100.00;100261.38;5049882;28;20056;-79
2022/03/13 09:17:06;;;;;;;4.15;0.70;;;;;;;7.20;100.00;100264.78;5049769;28;20442;-79
2022/03/13 09:19:37;;;;;;;5.20;0.52;;;;;;;7.19;100.00;100267.28;5049552;28;20045;-81
2022/03/13 09:22:06;;;;;;;4.80;1.05;;;;;;;7.12;100.00;100256.81;5049194;28;20120;-79
2022/03/13 09:24:34;;;;;;;4.03;1.45;;;;;;;7.14;100.00;100261.97;5048644;28;20044;-78
2022/03/13 09:27:03;;;;;;;2.35;0.60;;;;;;;7.12;100.00;100259.38;5049132;28;20052;-80
2022/03/13 09:29:32;;;;;;;1.40;0.43;;;;;;;7.12;100.00;100271.34;5048510;28;20048;-78
2022/03/13 09:32:00;;;;;;;2.22;0.40;;;;;;;7.07;100.00;100271.19;5049136;28;20627;-77
2022/03/13 09:34:29;;;;;;;1.90;0.63;;;;;;;7.08;100.00;100275.53;5049142;28;20065;-80
2022/03/13 09:36:59;;;;;;;2.15;0.60;;;;;;;7.10;100.00;100258.44;5033913;28;20094;-80
2022/03/13 09:39:29;;;;;;;1.65;0.60;;;;;;;7.13;100.00;100262.81;5053096;28;20045;-81
2022/03/13 09:41:58;;;;;;;3.22;0.88;;;;;;;7.03;100.00;100256.47;5055210;28;20543;-77
2022/03/13 09:44:28;;;;;;;2.38;0.50;;;;;;;6.98;100.00;100247.69;5054412;28;20053;-80
2022/03/13 09:46:57;;;;;;;2.90;0.35;;;;;;;6.98;100.00;100226.25;5053605;28;20088;-79
2022/03/13 09:49:27;;;;;;;1.88;0.50;;;;;;;6.86;100.00;100226.69;5052533;28;20053;-78
2022/03/13 09:51:56;;;;;;;1.60;0.50;;;;;;;6.89;100.00;100219.06;5052907;28;20502;-78
2022/03/13 09:54:26;;;;;;;3.50;0.70;;;;;;;6.86;100.00;100225.00;5052776;28;20149;-79
2022/03/13 09:56:54;;;;;;;2.55;0.57;;;;;;;6.86;100.00;100227.56;5052411;28;20049;-79
2022/03/13 09:59:23;;;;;;;0.38;0.30;;;;;;;6.85;100.00;100235.22;5052005;28;20121;-79
2022/03/13 10:01:51;;;;;;;0.25;0.22;;;;;;;6.80;100.00;100235.03;5053090;28;20132;-78
2022/03/13 10:04:20;;;;;;;3.70;0.88;;;;;;;6.80;100.00;100232.47;5052073;28;20040;-79
2022/03/13 10:07:06;;;;;;;4.60;0.73;;;;;;;6.80;100.00;100245.34;5052392;28;20048;-78
2022/03/13 10:09:38;;;;;;;1.00;0.10;;;;;;;6.74;100.00;100241.69;5052354;28;20053;-78
2022/03/13 10:12:12;;;;;;;1.65;0.40;;;;;;;6.73;100.00;100238.22;5052318;28;20041;-78
2022/03/13 10:14:59;;;;;;;1.90;0.50;;;;;;;6.79;100.00;100235.00;5052405;28;20110;-76
2022/03/13 10:17:28;;;;;;;4.30;0.40;;;;;;;6.75;100.00;100253.72;5039261;28;20110;-77
2022/03/13 10:20:14;;;;;;;2.15;0.38;;;;;;;6.69;100.00;100238.94;5052115;28;20496;-78
2022/03/13 10:22:43;;;;;;;0.40;0.30;;;;;;;6.83;100.00;100247.16;5051455;28;20118;-78
2022/03/13 10:25:15;;;;;;;1.40;0.30;;;;;;;6.76;100.00;100246.06;5052081;28;20514;-78
2022/03/13 10:27:44;;;;;;;0.57;0.30;;;;;;;6.78;100.00;100238.38;5051984;28;20475;-77
2022/03/13 10:30:13;;;;;;;3.15;0.30;;;;;;;6.80;100.00;100242.75;5052133;28;20147;-79
2022/03/13 10:32:41;;;;;;;5.00;1.00;;;;;;;6.79;100.00;100233.31;5049307;28;20544;-81
2022/03/13 10:35:10;;;;;;;1.10;0.30;;;;;;;6.75;100.00;100236.59;5032363;28;20557;-78
2022/03/13 10:37:43;;;;;;;2.95;0.75;;;;;;;6.74;100.00;100236.56;5035552;28;20042;-77
2022/03/13 10:40:21;;;;;;;2.25;0.45;;;;;;;6.74;100.00;100237.41;5051962;28;20045;-81
2022/03/13 10:42:52;;;;;;;1.38;0.50;;;;;;;6.76;100.00;100235.78;5055977;28;20107;-77
2022/03/13 10:45:37;;;;;;;1.30;0.47;;;;;;;6.76;100.00;100234.88;5051752;28;20067;-78
2022/03/13 10:48:28;;;;;;;1.58;0.63;;;;;;;6.73;100.00;100238.22;5040256;28;20103;-79
2022/03/13 10:50:58;;;;;;;2.28;0.65;;;;;;;6.70;100.00;100232.97;5051700;28;20128;-79
2022/03/13 10:53:29;;;;;;;1.38;0.38;;;;;;;6.73;100.00;100227.94;5050596;28;20514;-79
2022/03/13 10:56:08;;;;;;;2.90;0.60;;;;;;;6.73;100.00;100235.66;5052232;28;20576;-78
2022/03/13 10:58:38;;;;;;;1.65;0.45;;;;;;;6.77;100.00;100237.53;5052047;28;20060;-79
2022/03/13 11:01:08;;;;;;;7.38;0.57;;;;;;;6.83;100.00;100231.75;5052194;28;20049;-78
2022/03/13 11:03:38;;;;;;;1.65;0.30;;;;;;;6.84;100.00;100234.34;5051646;28;20094;-81
2022/03/13 11:06:06;;;;;;;1.40;0.20;;;;;;;6.84;100.00;100247.19;5051764;28;20057;-80
2022/03/13 11:08:36;;;;;;;4.70;0.98;;;;;;;6.80;100.00;100242.75;5037499;28;20056;-77
2022/03/13 11:11:06;;;;;;;0.40;0.25;;;;;;;6.84;100.00;100243.75;5055110;28;20044;-81
2022/03/13 11:13:39;;;;;;;0.80;0.20;;;;;;;6.83;100.00;100242.91;5054911;28;20216;-79
2022/03/13 11:16:09;;;;;;;2.00;0.43;;;;;;;6.80;100.00;100227.34;5052390;28;20061;-77
2022/03/13 11:18:38;;;;;;;0.65;0.20;;;;;;;6.72;100.00;100236.47;5051702;28;20720;-78
2022/03/13 11:21:08;;;;;;;2.35;0.57;;;;;;;6.63;100.00;100234.44;5051870;28;20080;-77
2022/03/13 11:23:37;;;;;;;0.90;0.20;;;;;;;6.63;100.00;100220.72;5050974;28;20128;-76
2022/03/13 11:26:08;;;;;;;0.60;0.47;;;;;;;6.63;100.00;100224.16;5049774;28;20505;-76
2022/03/13 11:28:38;;;;;;;0.77;0.40;;;;;;;6.67;100.00;100230.31;5050932;28;20075;-74
2022/03/13 11:31:31;;;;;;;2.22;0.50;;;;;;;6.66;100.00;100243.97;5050967;28;20053;-75
2022/03/13 11:34:16;;;;;;;0.43;0.10;;;;;;;6.68;100.00;100237.19;5050457;28;20419;-77
2022/03/13 11:36:45;;;;;;;1.58;0.50;;;;;;;6.62;100.00;100248.13;5050670;28;20422;-74